Volgodonsk, Russia
Current Conditions -  °F | °C
As of 9:00 PM on Friday 28 Nov 2014 (Local Time) from URRR Reporting Station
Overcast Overcast  
Wind Chill: 20°   Ceiling: 500
Heat Index: 30°   Visibility: 4mi
Dew Point: 28°   Wind: 13mph
Humidity: 93%   Direction: 90°E
Pressure: 30.39"   Gusts: NA
Location:  47.51°N, 42.15°E
Report Text: URRR 281800Z 09006MPS 7000 BKN005 OVC100 M01/M02 Q1029 04810060NOSIG RMK QBB150 MAST OBSC
Loading
Personal Weather Stations






























Interactive Weather Map New forecast layout! Learn more

10-Day Weather Forecast

Advertisements
Track Severe Weather on mobile